ADDS METAR Data INFO
IDs: Format: Raw Decoded Include TAF

Data at: 1146 UTC 25 Jun 2018

KTPL 251122Z AUTO 17012KT 10SM BKN020 BKN024 OVC041 26/23 A2996 RMK AO2
KTPL 251051Z AUTO 17013KT 10SM FEW016 OVC039 26/23 A2995 RMK AO2 PK WND 17026/1003 SLP139 T02560228
KTPL 251034Z AUTO 17016G22KT 10SM SCT018 SCT030 BKN040 26/23 A2993 RMK AO2 PK WND 17026/1003
KTPL 250951Z AUTO 18017KT 10SM BKN016 OVC028 26/23 A2992 RMK AO2 SLP130 T02560228
KTPL 250851Z AUTO 16017G25KT 10SM BKN018 OVC025 26/23 A2990 RMK AO2 PK WND 17027/0811 SLP123 T02560228 55002
KTPL 250751Z AUTO 16020G25KT 10SM OVC016 26/23 A2989 RMK AO2 PK WND 16028/0713 SLP119 T02560228
KTPL 250651Z AUTO 16017G21KT 10SM BKN018 BKN024 26/23 A2989 RMK AO2 SLP120 T02610233
KTPL 250633Z AUTO 16019KT 10SM BKN018 26/23 A2990 RMK AO2
KTPL 250551Z AUTO 15012KT 10SM CLR 27/23 A2991 RMK AO2 SLP125 T02670228 10339 20267 403670250 51006
KTPL 250451Z AUTO 15014KT 10SM CLR 27/23 A2991 RMK AO2 SLP126 T02720228
KTPL 250351Z AUTO 14014KT 10SM FEW034 28/23 A2992 RMK AO2 SLP131 T02830228
KTPL 250251Z AUTO 15012KT 10SM SCT036 29/23 A2989 RMK AO2 SLP119 T02940228 53027
KTPL 250151Z AUTO 15014G26KT 10SM CLR 31/21 A2985 RMK AO2 PK WND 14027/0136 SLP106 T03060206
KTPL 250051Z AUTO 15018G27KT 10SM CLR 32/22 A2982 RMK AO2 PK WND 14030/2353 SLP096 T03220217
KTPL 242351Z AUTO 14023G29KT 10SM CLR 34/21 A2981 RMK AO2 PK WND 16030/2328 SLP092 T03390211 10367 20339 58002
KTPL 242251Z AUTO 15016G28KT 10SM CLR 35/21 A2981 RMK AO2 PK WND 18031/2208 SLP093 T03500211
KTPL 242151Z AUTO 15022G30KT 10SM CLR 36/21 A2981 RMK AO2 PK WND 17032/2121 SLP093 T03610206
KTPL 242051Z AUTO 17023G29KT 10SM FEW060 36/21 A2981 RMK AO2 PK WND 17029/2046 SLP093 T03610211 58020
KTPL 241951Z AUTO 16019G26KT 10SM FEW055 36/21 A2984 RMK AO2 PK WND 15030/1853 SLP103 T03560211
KTPL 241851Z AUTO 15016G26KT 10SM FEW050 36/21 A2986 RMK AO2 PK WND 18026/1843 SLP109 T03610211
KTPL 241751Z AUTO 17021G25KT 10SM CLR 34/22 A2987 RMK AO2 SLP113 T03440217 10344 20261 51004 TSNO
KTPL 241651Z AUTO 16020G25KT 10SM FEW043 33/21 A2987 RMK AO2 PK WND 17026/1626 SLP113 T03280211
KTPL 241551Z AUTO 16020G27KT 10SM CLR 32/21 A2987 RMK AO2 PK WND 17028/1534 SLP112 T03170211
KTPL 241451Z AUTO 18018G27KT 10SM CLR 30/22 A2986 RMK AO2 PK WND 18028/1441 SLP110 T03000222 53017
KTPL 241405Z AUTO 17024G28KT 10SM FEW019 28/23 A2985 RMK AO2 PK WND 17028/1405
KTPL 241351Z AUTO 17022G28KT 10SM BKN019 28/23 A2985 RMK AO2 PK WND 18028/1348 SLP107 T02780228
KTPL 241251Z AUTO 18023G29KT 10SM BKN017 BKN023 26/23 A2982 RMK AO2 PK WND 19030/1221 SLP097 T02610233
KTPL 241151Z AUTO 18021G24KT 10SM OVC015 26/23 A2981 RMK AO2 PK WND 17028/1052 SLP093 T02610233 10278 20250 53002
KTPL 241110Z AUTO 18015G22KT 10SM BKN015 26/23 A2980 RMK AO2 PK WND 17028/1052
KTPL 241051Z AUTO 16023G33KT 10SM SCT015 25/23 A2975 RMK AO2 PK WND 16033/1044 SLP073 T02500233
KTPL 240951Z AUTO 16017G28KT 10SM FEW016 26/23 A2980 RMK AO2 PK WND 16028/0947 SLP087 T02560233
KTPL 240851Z AUTO 16022G28KT 10SM CLR 26/23 A2981 RMK AO2 PK WND 17028/0850 SLP090 T02610233 58031
KTPL 240751Z AUTO 15016KT 10SM CLR 27/23 A2984 RMK AO2 PRESFR SLP104 T02670233
KTPL 240651Z AUTO 16015KT 10SM FEW110 27/23 A2988 RMK AO2 SLP115 T02720233
KTPL 240551Z AUTO 19015G20KT 10SM SCT025 OVC037 28/23 A2990 RMK AO2 SLP123 T02780233 10339 20278 403610244 53041
KTPL 240451Z AUTO 17017KT 10SM OVC027 28/23 A2984 RMK AO2 SLP103 T02830233
KTPL 240421Z AUTO 16015G20KT 10SM OVC029 28/23 A2983 RMK AO2
KTPL 240351Z AUTO 16020KT 10SM SCT031 29/23 A2981 RMK AO2 SLP091 T02890228
KTPL 240251Z AUTO 16013G22KT 10SM CLR 29/22 A2977 RMK AO2 SLP081 T02940222 53011
KTPL 240151Z AUTO 16021KT 10SM CLR 31/22 A2974 RMK AO2 SLP071 T03110217
KTPL 240051Z AUTO 15018G24KT 10SM CLR 32/22 A2974 RMK AO2 SLP071 T03220217
KTPL 232351Z AUTO 14014G24KT 10SM CLR 34/22 A2974 RMK AO2 PK WND 16026/2328 SLP070 T03440217 10361 20333 56012